Time;durP1;ratioP1;P1;durP2;ratioP2;P2;SDS_P1;SDS_P2;PMS_P1;PMS_P2;Temp;Humidity;BMP_temperature;BMP_pressure;BME280_temperature;BME280_humidity;BME280_pressure;Samples;Min_cycle;Max_cycle;Signal;HPM_P1;HPM_P2
2022/10/20 00:01:50;;;;;;;19.90;8.90;;;;;;;10.96;90.89;101382.28;5074681;28;20322;-61
2022/10/20 00:04:17;;;;;;;20.40;8.77;;;;;;;10.94;90.99;101377.09;5074269;28;20071;-61
2022/10/20 00:06:44;;;;;;;19.40;9.15;;;;;;;10.93;91.10;101362.16;5074544;28;20040;-61
2022/10/20 00:09:10;;;;;;;20.83;9.23;;;;;;;10.96;91.21;101358.38;5060209;28;20049;-60
2022/10/20 00:11:37;;;;;;;20.60;8.95;;;;;;;10.98;91.51;101347.63;5053548;28;20049;-60
2022/10/20 00:14:04;;;;;;;21.50;9.32;;;;;;;10.99;90.89;101355.47;5054432;28;20037;-61
2022/10/20 00:16:35;;;;;;;22.13;9.70;;;;;;;10.96;91.11;101347.75;5053315;28;20506;-61
2022/10/20 00:19:01;;;;;;;19.95;9.15;;;;;;;11.02;91.22;101333.09;5054598;28;20073;-60
2022/10/20 00:21:28;;;;;;;21.55;9.07;;;;;;;11.04;90.83;101333.78;5056299;28;20557;-60
2022/10/20 00:24:00;;;;;;;21.58;9.70;;;;;;;10.92;91.21;101323.31;5074218;28;20038;-60
2022/10/20 00:26:28;;;;;;;23.08;9.07;;;;;;;10.96;91.10;101321.22;5074584;28;20558;-61
2022/10/20 00:28:55;;;;;;;19.48;9.35;;;;;;;10.99;90.46;101310.31;5073893;28;20440;-61
2022/10/20 00:31:23;;;;;;;23.90;9.38;;;;;;;11.02;90.65;101322.47;5074504;28;20048;-60
2022/10/20 00:33:50;;;;;;;25.58;9.50;;;;;;;11.04;90.67;101316.03;5072531;28;20115;-61
2022/10/20 00:36:20;;;;;;;27.55;10.07;;;;;;;11.10;89.84;101318.13;5074272;28;20060;-60
2022/10/20 00:38:47;;;;;;;23.02;9.13;;;;;;;11.10;89.92;101317.28;5064334;28;20132;-61
2022/10/20 00:41:16;;;;;;;22.75;9.60;;;;;;;11.09;89.94;101326.22;5054161;28;20055;-61
2022/10/20 00:43:47;;;;;;;21.80;8.95;;;;;;;11.03;89.91;101318.84;5054277;28;20068;-60
2022/10/20 00:46:18;;;;;;;25.98;9.60;;;;;;;11.01;90.10;101321.63;5053871;28;20049;-60
2022/10/20 00:48:51;;;;;;;21.48;10.15;;;;;;;11.01;90.14;101310.19;5052617;28;20041;-60
2022/10/20 00:51:21;;;;;;;22.13;9.35;;;;;;;11.08;89.90;101298.84;5033967;28;20049;-61
2022/10/20 00:53:52;;;;;;;19.75;8.82;;;;;;;11.05;89.92;101293.81;5073486;28;20045;-60
2022/10/20 00:56:21;;;;;;;19.40;9.13;;;;;;;11.03;89.91;101301.09;5073509;28;20079;-60
2022/10/20 00:58:49;;;;;;;21.42;9.85;;;;;;;11.03;89.95;101297.59;5072552;28;20040;-60
2022/10/20 01:01:16;;;;;;;21.75;9.35;;;;;;;10.99;90.18;101297.06;5056124;28;20094;-60
2022/10/20 01:03:47;;;;;;;27.33;9.75;;;;;;;11.07;89.64;101294.50;5072859;28;20059;-60
2022/10/20 01:06:16;;;;;;;22.63;9.00;;;;;;;11.03;89.71;101289.63;5072952;28;20050;-60
2022/10/20 01:08:51;;;;;;;22.20;8.95;;;;;;;11.08;89.67;101290.88;5063297;28;20044;-60
2022/10/20 01:14:44;;;;;;;26.70;11.20;;;;;;;11.11;89.36;101279.13;5122446;27;20419;-60
2022/10/20 01:20:25;;;;;;;21.05;9.40;;;;;;;11.14;88.93;101271.69;5130688;27;20156;-60
2022/10/20 01:23:22;;;;;;;25.08;8.98;;;;;;;11.09;88.94;101263.31;5109612;28;20135;-61
2022/10/20 01:26:29;;;;;;;18.98;9.55;;;;;;;11.08;88.78;101268.81;5110541;28;20451;-61
2022/10/20 01:29:03;;;;;;;22.55;9.10;;;;;;;11.14;88.34;101265.56;5109709;28;20032;-61
2022/10/20 01:34:36;;;;;;;23.98;8.93;;;;;;;11.12;88.99;101257.75;5100283;27;20138;-60
2022/10/20 01:37:20;;;;;;;18.10;9.23;;;;;;;11.10;88.38;101248.25;5049954;28;20508;-60
2022/10/20 01:39:53;;;;;;;21.45;9.05;;;;;;;11.13;88.74;101255.91;5031369;28;20120;-60
2022/10/20 01:42:23;;;;;;;21.70;9.13;;;;;;;11.08;88.43;101256.38;5029920;28;20058;-60
2022/10/20 01:44:54;;;;;;;18.73;8.88;;;;;;;11.11;88.10;101249.91;5030123;28;20128;-60
2022/10/20 01:47:25;;;;;;;23.17;9.77;;;;;;;11.10;88.23;101251.75;5030286;28;20099;-60
2022/10/20 01:49:53;;;;;;;19.35;9.40;;;;;;;11.05;88.59;101247.84;5042958;28;20049;-61
2022/10/20 01:52:21;;;;;;;21.55;9.02;;;;;;;11.04;88.80;101236.41;5032651;28;20048;-60
2022/10/20 01:54:47;;;;;;;28.30;9.25;;;;;;;11.09;88.30;101227.97;5068462;28;20041;-60
2022/10/20 01:57:26;;;;;;;20.20;9.02;;;;;;;11.10;88.44;101227.84;5070273;28;20068;-60
2022/10/20 02:00:03;;;;;;;19.30;9.20;;;;;;;11.02;88.63;101211.78;5069635;28;20036;-61
2022/10/20 02:03:01;;;;;;;20.33;8.75;;;;;;;11.07;87.87;101203.41;5070079;28;20052;-61
2022/10/20 02:05:57;;;;;;;25.25;9.43;;;;;;;11.00;88.41;101200.47;5068673;28;20099;-61
2022/10/20 02:08:34;;;;;;;22.73;9.75;;;;;;;10.99;88.59;101193.53;5062862;28;20053;-61
2022/10/20 02:11:05;;;;;;;18.35;8.93;;;;;;;11.05;88.71;101198.22;5049401;28;20033;-60
2022/10/20 02:13:36;;;;;;;19.75;9.05;;;;;;;11.01;87.97;101186.25;5049973;28;20618;-60
2022/10/20 02:16:09;;;;;;;18.85;9.07;;;;;;;11.03;88.00;101183.44;5049013;28;20068;-60
2022/10/20 02:18:40;;;;;;;20.10;8.65;;;;;;;11.03;88.26;101194.06;5049382;28;20041;-60
2022/10/20 02:21:09;;;;;;;20.10;9.30;;;;;;;11.00;87.74;101187.22;5066088;28;20045;-60
2022/10/20 02:23:40;;;;;;;19.60;9.65;;;;;;;11.04;87.57;101190.41;5069638;28;20064;-59
2022/10/20 02:26:12;;;;;;;22.83;9.27;;;;;;;11.06;87.93;101183.13;5069834;28;20060;-60
2022/10/20 02:28:45;;;;;;;20.70;8.88;;;;;;;11.00;87.97;101176.59;5084848;28;20041;-60
2022/10/20 02:31:13;;;;;;;22.52;9.25;;;;;;;11.07;87.92;101167.06;5068061;28;20098;-60
2022/10/20 02:33:44;;;;;;;23.52;10.13;;;;;;;11.14;86.92;101167.31;5068547;28;20049;-60
2022/10/20 02:36:16;;;;;;;21.00;9.20;;;;;;;11.04;87.62;101179.78;5067842;28;20036;-59
2022/10/20 02:38:43;;;;;;;24.35;9.93;;;;;;;11.04;88.27;101171.81;5059901;28;20068;-60
2022/10/20 02:41:09;;;;;;;19.80;9.85;;;;;;;11.04;87.81;101158.56;5049099;28;20041;-60
2022/10/20 02:43:36;;;;;;;23.63;9.05;;;;;;;11.00;87.92;101155.34;5048804;28;20562;-60
2022/10/20 02:46:03;;;;;;;17.30;9.23;;;;;;;11.00;88.10;101165.97;5035172;28;20633;-60
2022/10/20 02:48:30;;;;;;;23.92;9.90;;;;;;;11.02;87.24;101160.53;5067704;28;20491;-60
2022/10/20 02:50:57;;;;;;;24.27;9.00;;;;;;;11.08;87.23;101162.59;5039495;28;20053;-60
2022/10/20 02:53:24;;;;;;;17.88;9.30;;;;;;;11.12;86.68;101163.97;5029750;28;20040;-60
2022/10/20 02:55:50;;;;;;;18.10;8.95;;;;;;;11.11;87.05;101151.66;5055280;28;20048;-60
2022/10/20 02:58:17;;;;;;;28.00;8.98;;;;;;;11.13;86.61;101137.28;5055487;28;20095;-61
2022/10/20 03:00:44;;;;;;;27.10;9.25;;;;;;;11.04;87.07;101132.00;5055424;28;20490;-60
2022/10/20 03:03:11;;;;;;;20.60;9.40;;;;;;;11.06;86.97;101143.31;5055188;28;20044;-61
2022/10/20 03:05:40;;;;;;;25.08;10.30;;;;;;;11.04;87.04;101142.63;5054593;28;20091;-60
2022/10/20 03:08:07;;;;;;;18.88;9.55;;;;;;;11.08;87.28;101139.53;5050446;28;20046;-59
2022/10/20 03:10:34;;;;;;;19.42;8.50;;;;;;;11.06;86.90;101140.66;5035264;28;20095;-60
2022/10/20 03:13:00;;;;;;;20.92;9.18;;;;;;;11.07;87.07;101145.81;5035172;28;20053;-60
2022/10/20 03:15:27;;;;;;;21.25;9.23;;;;;;;11.09;86.63;101135.88;5035515;28;20403;-61
2022/10/20 03:17:54;;;;;;;24.92;9.80;;;;;;;11.09;86.71;101135.88;5035244;28;20049;-60
2022/10/20 03:20:21;;;;;;;42.40;9.30;;;;;;;11.10;86.92;101137.56;5045643;28;20041;-60
2022/10/20 03:22:48;;;;;;;20.95;9.43;;;;;;;11.14;86.66;101141.59;5055026;28;20187;-60
2022/10/20 03:25:14;;;;;;;23.48;8.75;;;;;;;11.17;86.43;101124.53;5070281;28;20045;-60
2022/10/20 03:27:41;;;;;;;21.13;9.23;;;;;;;11.11;86.53;101133.94;5054984;28;20110;-60
2022/10/20 03:30:08;;;;;;;18.42;8.88;;;;;;;11.11;86.31;101119.81;5054890;28;20049;-60
2022/10/20 03:32:35;;;;;;;21.33;9.25;;;;;;;11.17;86.42;101121.88;5054674;28;20081;-60
2022/10/20 03:35:02;;;;;;;20.35;9.05;;;;;;;11.17;86.39;101116.59;5051669;28;20132;-61
2022/10/20 03:37:29;;;;;;;20.88;9.52;;;;;;;11.20;86.84;101120.75;5029429;28;20499;-60
2022/10/20 03:39:55;;;;;;;17.85;8.68;;;;;;;11.10;86.44;101108.38;5015920;28;20491;-60
2022/10/20 03:42:22;;;;;;;19.60;9.32;;;;;;;11.12;86.50;101111.69;5014669;28;20053;-60
2022/10/20 03:44:48;;;;;;;25.42;10.18;;;;;;;11.19;86.13;101100.47;5046740;28;20045;-61
2022/10/20 03:47:15;;;;;;;18.67;9.15;;;;;;;11.16;86.65;101098.13;5029841;28;20488;-61
2022/10/20 03:49:42;;;;;;;19.75;8.90;;;;;;;11.21;86.60;101109.16;5024930;28;20041;-60
2022/10/20 03:52:08;;;;;;;22.42;9.15;;;;;;;11.21;86.41;101101.19;5017363;28;20577;-60
2022/10/20 03:54:35;;;;;;;21.05;9.73;;;;;;;11.12;86.08;101102.91;5053838;28;20424;-60
2022/10/20 03:57:02;;;;;;;18.90;8.73;;;;;;;11.20;86.39;101091.53;5069212;28;20049;-60
2022/10/20 03:59:30;;;;;;;22.95;9.38;;;;;;;11.13;86.16;101086.84;5054030;28;20051;-60
2022/10/20 04:01:56;;;;;;;17.80;8.73;;;;;;;11.14;86.22;101083.19;5054700;28;20398;-60
2022/10/20 04:04:23;;;;;;;21.58;9.85;;;;;;;11.06;87.01;101092.88;5053652;28;20132;-60
2022/10/20 04:06:50;;;;;;;17.52;8.90;;;;;;;11.09;86.93;101074.81;5053982;28;20040;-61
2022/10/20 04:09:16;;;;;;;27.65;10.13;;;;;;;11.10;86.45;101063.22;5040183;28;20050;-61
2022/10/20 04:11:43;;;;;;;21.90;8.95;;;;;;;11.20;86.06;101070.28;5033976;28;20046;-61
2022/10/20 04:14:10;;;;;;;22.60;8.65;;;;;;;11.08;86.48;101082.97;5034149;28;20037;-61
2022/10/20 04:16:36;;;;;;;23.33;9.50;;;;;;;11.13;86.56;101083.31;5065764;28;20099;-60
2022/10/20 04:19:03;;;;;;;26.40;8.90;;;;;;;11.07;86.01;101079.44;5066159;28;20056;-60
2022/10/20 04:21:30;;;;;;;22.73;9.23;;;;;;;11.12;86.11;101079.00;5053856;28;20052;-60
2022/10/20 04:23:57;;;;;;;19.83;9.02;;;;;;;11.23;85.81;101084.09;5054190;28;20064;-60
2022/10/20 04:26:23;;;;;;;21.25;9.10;;;;;;;11.13;86.01;101072.69;5053706;28;20049;-60
2022/10/20 04:28:50;;;;;;;21.55;9.30;;;;;;;11.18;86.29;101064.31;5052506;28;20102;-60
2022/10/20 04:31:17;;;;;;;17.75;8.98;;;;;;;11.14;86.48;101059.28;5053592;28;20053;-60
2022/10/20 04:33:44;;;;;;;21.23;8.63;;;;;;;11.14;85.71;101063.75;5052899;28;20077;-60
2022/10/20 04:36:12;;;;;;;23.13;10.32;;;;;;;11.16;85.51;101050.34;5053699;28;20410;-62
2022/10/20 04:38:39;;;;;;;16.75;8.68;;;;;;;11.19;85.74;101028.78;5044948;28;20045;-60
2022/10/20 04:41:05;;;;;;;17.75;8.85;;;;;;;11.19;86.05;101023.47;5033379;28;20053;-61
2022/10/20 04:43:33;;;;;;;20.38;8.63;;;;;;;11.17;85.51;101021.00;5033366;28;20539;-61
2022/10/20 04:46:02;;;;;;;20.58;8.77;;;;;;;11.20;84.90;101030.47;5065366;28;20049;-61
2022/10/20 04:48:29;;;;;;;16.15;8.52;;;;;;;11.21;85.86;101021.53;5033535;28;20172;-61
2022/10/20 04:51:03;;;;;;;24.35;9.65;;;;;;;11.27;85.02;101021.72;5031041;28;20041;-61
2022/10/20 04:53:29;;;;;;;19.00;9.02;;;;;;;11.35;84.65;101018.34;5039028;28;20529;-60
2022/10/20 04:55:56;;;;;;;18.95;8.65;;;;;;;11.38;84.26;101010.03;5053038;28;20072;-60
2022/10/20 04:58:24;;;;;;;18.60;8.75;;;;;;;11.45;83.88;101007.63;5053508;28;20415;-60
2022/10/20 05:00:51;;;;;;;18.95;8.10;;;;;;;11.36;84.10;101003.22;5053312;28;20487;-61
2022/10/20 05:03:18;;;;;;;19.92;8.63;;;;;;;11.39;84.39;101003.75;5052625;28;20045;-59
2022/10/20 05:05:46;;;;;;;17.92;8.00;;;;;;;11.44;83.89;101000.63;5051412;28;20504;-61
2022/10/20 05:08:13;;;;;;;17.35;8.30;;;;;;;11.44;83.74;100993.50;5010015;28;20092;-61
2022/10/20 05:10:40;;;;;;;21.25;9.00;;;;;;;11.39;83.97;101002.91;5013687;28;20050;-61
2022/10/20 05:13:06;;;;;;;21.58;8.45;;;;;;;11.33;84.02;100991.94;5013233;28;20129;-59
2022/10/20 05:15:33;;;;;;;22.17;8.95;;;;;;;11.30;83.79;100981.59;5013484;28;20112;-60
2022/10/20 05:18:00;;;;;;;17.77;9.02;;;;;;;11.39;83.97;100989.63;5028009;28;20400;-60
2022/10/20 05:20:26;;;;;;;15.52;8.48;;;;;;;11.35;84.00;100981.16;5035658;28;20052;-60
2022/10/20 05:22:54;;;;;;;18.70;8.40;;;;;;;11.34;83.88;100963.53;5053001;28;20562;-60
2022/10/20 05:25:21;;;;;;;21.92;8.45;;;;;;;11.33;84.08;100975.13;5052877;28;20183;-60
2022/10/20 05:28:01;;;;;;;19.35;9.43;;;;;;;11.30;83.72;100978.94;5052963;28;20049;-60
2022/10/20 05:30:27;;;;;;;30.52;9.60;;;;;;;11.32;83.98;100981.44;5052791;28;20053;-60
2022/10/20 05:32:54;;;;;;;25.15;9.10;;;;;;;11.27;84.28;100965.97;5052312;28;20052;-60
2022/10/20 05:35:21;;;;;;;17.20;8.55;;;;;;;11.30;83.98;100951.56;5084580;28;20037;-61
2022/10/20 05:37:48;;;;;;;21.63;9.38;;;;;;;11.34;84.31;100948.44;5045200;28;20069;-61
2022/10/20 05:40:14;;;;;;;22.98;9.32;;;;;;;11.33;84.41;100961.84;5032268;28;20050;-61
2022/10/20 05:42:41;;;;;;;23.05;9.10;;;;;;;11.30;84.05;100962.19;5031758;28;20052;-60
2022/10/20 05:45:08;;;;;;;17.65;8.88;;;;;;;11.27;83.73;100954.50;5032288;28;20045;-60
2022/10/20 05:47:35;;;;;;;25.85;8.52;;;;;;;11.33;83.96;100959.19;5032171;28;20050;-60
2022/10/20 05:50:01;;;;;;;19.73;8.68;;;;;;;11.37;83.84;100944.66;5039746;28;20049;-60
2022/10/20 05:52:28;;;;;;;19.00;8.90;;;;;;;11.31;83.60;100956.72;5014408;28;20056;-60
2022/10/20 05:54:55;;;;;;;23.63;8.85;;;;;;;11.38;83.17;100958.75;5051932;28;20037;-60
2022/10/20 05:57:22;;;;;;;18.15;9.13;;;;;;;11.38;83.47;100940.97;5052273;28;20053;-60
2022/10/20 05:59:48;;;;;;;28.23;9.23;;;;;;;11.40;83.40;100940.84;5051907;28;20041;-60
2022/10/20 06:02:15;;;;;;;18.35;8.75;;;;;;;11.36;83.76;100942.97;5052659;28;20052;-60
2022/10/20 06:04:42;;;;;;;17.23;7.97;;;;;;;11.37;83.60;100949.09;5051626;28;20079;-60
2022/10/20 06:07:09;;;;;;;16.38;8.25;;;;;;;11.36;83.30;100948.28;5052235;28;20126;-60
2022/10/20 06:09:37;;;;;;;16.52;8.70;;;;;;;11.41;83.00;100948.66;5035274;28;20100;-60
2022/10/20 06:12:04;;;;;;;16.63;8.10;;;;;;;11.37;83.28;100943.78;5032997;28;20042;-60
2022/10/20 06:14:32;;;;;;;22.73;8.55;;;;;;;11.42;83.50;100942.34;5032455;28;20076;-60
2022/10/20 06:16:59;;;;;;;23.45;8.77;;;;;;;11.38;83.39;100943.63;5032290;28;20530;-60
2022/10/20 06:19:25;;;;;;;16.65;8.75;;;;;;;11.43;83.24;100937.88;5035726;28;20041;-61
2022/10/20 06:21:53;;;;;;;21.35;8.60;;;;;;;11.51;82.83;100941.44;5055872;28;20055;-61
2022/10/20 06:24:19;;;;;;;22.35;8.48;;;;;;;11.48;82.57;100947.03;5056422;28;20057;-61
2022/10/20 06:26:46;;;;;;;19.15;8.15;;;;;;;11.48;83.05;100954.19;5055761;28;20558;-61
2022/10/20 06:29:15;;;;;;;18.98;8.00;;;;;;;11.45;82.50;100951.84;5056128;28;20049;-61
2022/10/20 06:31:45;;;;;;;20.60;8.73;;;;;;;11.51;83.10;100959.19;5055997;28;20055;-60
2022/10/20 06:34:18;;;;;;;19.33;8.57;;;;;;;11.55;82.99;100963.22;5055451;28;20052;-61
2022/10/20 06:36:46;;;;;;;20.27;8.57;;;;;;;11.58;82.96;100970.03;5056136;28;20123;-61
2022/10/20 06:39:17;;;;;;;17.40;8.48;;;;;;;11.62;82.59;100960.75;5042381;28;20054;-60
2022/10/20 06:41:49;;;;;;;18.15;7.90;;;;;;;11.62;83.36;100971.38;5036128;28;20046;-60
2022/10/20 06:44:20;;;;;;;22.98;8.35;;;;;;;11.64;82.45;100964.09;5035474;28;20052;-60
2022/10/20 06:46:47;;;;;;;19.92;8.85;;;;;;;11.63;82.37;100949.97;5035959;28;20041;-60
2022/10/20 06:49:14;;;;;;;16.23;8.65;;;;;;;11.63;83.52;100968.56;5036999;28;20495;-60
2022/10/20 06:51:41;;;;;;;19.08;9.18;;;;;;;11.68;83.32;100950.34;5016357;28;20045;-60
2022/10/20 06:54:08;;;;;;;22.98;8.63;;;;;;;11.66;83.31;100935.53;5055814;28;20045;-60
2022/10/20 06:56:37;;;;;;;21.15;9.32;;;;;;;11.70;83.08;100936.91;5055502;28;20114;-60
2022/10/20 06:59:04;;;;;;;21.73;9.32;;;;;;;11.66;82.97;100952.31;5055330;28;20044;-60
2022/10/20 07:01:34;;;;;;;19.10;9.57;;;;;;;11.77;82.34;100948.56;5036205;28;20045;-59
2022/10/20 07:04:05;;;;;;;19.63;8.93;;;;;;;11.87;82.38;100953.78;5016451;28;20425;-58
2022/10/20 07:06:36;;;;;;;17.20;8.32;;;;;;;11.89;82.19;100955.28;5023698;28;20076;-59
2022/10/20 07:09:06;;;;;;;17.98;8.80;;;;;;;11.89;82.53;100963.25;5022616;28;20107;-59
2022/10/20 07:11:33;;;;;;;23.77;8.68;;;;;;;11.99;82.87;100967.66;5031824;28;20049;-58
2022/10/20 07:14:01;;;;;;;23.55;10.77;;;;;;;12.06;81.92;100958.03;5033894;28;20041;-60
2022/10/20 07:16:30;;;;;;;23.00;9.50;;;;;;;12.09;82.01;100968.38;5026959;28;20060;-59
2022/10/20 07:18:57;;;;;;;18.27;9.38;;;;;;;12.02;82.05;100970.00;5034202;28;20049;-59
2022/10/20 07:21:26;;;;;;;20.83;9.15;;;;;;;12.01;82.40;100971.00;5030950;28;20107;-60
2022/10/20 07:23:55;;;;;;;30.67;9.65;;;;;;;12.07;82.36;100973.03;5034617;28;20049;-59
2022/10/20 07:26:24;;;;;;;22.25;8.60;;;;;;;12.08;81.63;100959.56;5030730;28;20045;-60
2022/10/20 07:28:53;;;;;;;20.85;9.32;;;;;;;12.14;82.12;100968.75;5048213;28;20041;-60
2022/10/20 07:31:24;;;;;;;21.25;9.48;;;;;;;12.18;82.21;100963.94;5024066;28;20048;-61
2022/10/20 07:33:51;;;;;;;19.02;9.10;;;;;;;12.08;82.54;100972.88;5036231;28;20053;-60
2022/10/20 07:36:25;;;;;;;24.75;9.93;;;;;;;12.13;82.60;100967.06;5030775;28;20132;-61
2022/10/20 07:38:55;;;;;;;22.35;10.82;;;;;;;12.18;82.10;100947.97;5025583;28;20519;-61
2022/10/20 07:41:22;;;;;;;21.70;10.15;;;;;;;12.25;82.60;100957.81;5029762;28;20402;-60
2022/10/20 07:43:50;;;;;;;22.60;10.43;;;;;;;12.26;81.77;100954.19;5021397;28;20450;-61
2022/10/20 07:46:17;;;;;;;19.45;9.88;;;;;;;12.24;82.51;100950.00;5026570;28;20042;-61
2022/10/20 07:48:44;;;;;;;21.70;10.30;;;;;;;12.35;81.83;100943.56;5010423;28;20046;-60
2022/10/20 07:51:27;;;;;;;21.67;10.18;;;;;;;12.40;82.20;100943.91;4999152;28;20676;-61
2022/10/20 07:53:58;;;;;;;22.30;10.20;;;;;;;12.45;81.26;100950.41;5030055;28;20049;-60
2022/10/20 07:56:28;;;;;;;23.70;10.47;;;;;;;12.46;81.98;100940.59;5033027;28;20041;-61
2022/10/20 07:58:56;;;;;;;19.13;10.02;;;;;;;12.55;81.35;100958.28;5042561;28;20564;-61
2022/10/20 08:01:22;;;;;;;19.67;10.13;;;;;;;12.50;81.49;100968.56;5053446;28;20046;-61
2022/10/20 08:03:49;;;;;;;21.05;10.00;;;;;;;12.58;81.29;100962.44;5031891;28;20135;-61
2022/10/20 08:06:17;;;;;;;28.52;11.15;;;;;;;12.67;81.59;100956.97;5028994;28;20065;-59
2022/10/20 08:08:44;;;;;;;21.90;10.38;;;;;;;12.65;80.92;100958.13;5024177;28;20108;-60
2022/10/20 08:11:11;;;;;;;20.60;10.82;;;;;;;12.72;80.63;100963.66;5005954;28;20061;-59
2022/10/20 08:13:39;;;;;;;22.33;10.63;;;;;;;12.76;81.04;100967.63;5015303;28;20104;-59
2022/10/20 08:16:08;;;;;;;22.75;10.73;;;;;;;12.79;80.38;100960.16;5012874;28;20057;-59
2022/10/20 08:18:37;;;;;;;20.33;10.40;;;;;;;12.77;80.82;100955.97;5055095;28;20064;-60
2022/10/20 08:21:09;;;;;;;26.50;10.32;;;;;;;12.77;80.81;100943.53;5033151;28;20054;-60
2022/10/20 08:23:38;;;;;;;22.65;11.27;;;;;;;12.84;80.90;100957.00;5009846;28;20141;-60
2022/10/20 08:26:05;;;;;;;24.70;10.73;;;;;;;12.94;80.23;100948.88;5012775;28;20053;-60
2022/10/20 08:28:35;;;;;;;22.17;11.20;;;;;;;12.94;80.71;100947.03;5007712;28;20092;-60
2022/10/20 08:31:04;;;;;;;25.75;12.15;;;;;;;12.82;80.64;100941.22;5013544;28;20483;-60
2022/10/20 08:33:32;;;;;;;24.27;10.65;;;;;;;12.85;80.61;100948.84;5008502;28;20056;-60
2022/10/20 08:36:01;;;;;;;21.27;11.13;;;;;;;12.97;80.16;100952.03;5013810;28;20368;-60
2022/10/20 08:38:28;;;;;;;28.40;11.40;;;;;;;13.02;80.15;100956.84;5018690;28;20499;-60
2022/10/20 08:40:57;;;;;;;23.80;11.30;;;;;;;13.11;80.11;100955.88;5064071;28;20103;-60
2022/10/20 08:43:24;;;;;;;28.38;16.23;;;;;;;13.04;79.71;100953.06;5024911;28;20057;-60
2022/10/20 08:45:51;;;;;;;22.10;10.93;;;;;;;13.07;79.19;100960.69;5010382;28;20084;-59
2022/10/20 08:48:21;;;;;;;25.73;11.57;;;;;;;13.14;79.95;100946.72;5018484;28;20041;-60
2022/10/20 08:50:50;;;;;;;24.35;11.32;;;;;;;13.23;79.82;100943.88;5031235;28;20049;-60
2022/10/20 08:53:20;;;;;;;22.30;10.68;;;;;;;13.28;79.62;100940.75;5030112;28;20127;-58
2022/10/20 08:55:48;;;;;;;21.35;11.98;;;;;;;13.23;79.01;100951.88;5048409;28;20118;-59
2022/10/20 08:58:19;;;;;;;26.80;11.68;;;;;;;13.14;79.54;100944.88;5032408;28;20041;-60
2022/10/20 09:00:47;;;;;;;24.30;12.02;;;;;;;13.15;80.29;100940.38;5027090;28;20037;-60
2022/10/20 09:03:22;;;;;;;25.33;11.82;;;;;;;13.20;79.73;100938.06;5030033;28;20403;-60
2022/10/20 09:05:55;;;;;;;22.58;12.30;;;;;;;13.27;79.85;100955.03;5037145;28;20048;-60
2022/10/20 09:08:26;;;;;;;25.83;11.68;;;;;;;13.25;79.91;100944.56;5041071;28;20065;-60
2022/10/20 09:10:54;;;;;;;22.27;11.13;;;;;;;13.37;79.65;100930.91;5033174;28;20049;-60
2022/10/20 09:13:31;;;;;;;31.50;11.95;;;;;;;13.31;79.38;100918.28;5028008;28;20084;-60
2022/10/20 09:16:04;;;;;;;26.52;10.98;;;;;;;13.32;79.75;100926.13;5016104;28;20369;-60
2022/10/20 09:18:32;;;;;;;26.85;11.45;;;;;;;13.29;79.84;100914.94;5007530;28;20052;-60
2022/10/20 09:21:04;;;;;;;22.23;11.90;;;;;;;13.42;79.28;100913.47;5047294;28;20103;-60
2022/10/20 09:23:38;;;;;;;25.63;11.85;;;;;;;13.50;78.98;100915.28;5040019;28;20044;-60
2022/10/20 09:26:17;;;;;;;24.70;11.50;;;;;;;13.60;77.91;100915.91;5031742;28;20041;-60
2022/10/20 09:28:49;;;;;;;24.15;11.88;;;;;;;13.66;78.31;100918.91;5023816;28;20111;-60
2022/10/20 09:31:38;;;;;;;25.92;11.98;;;;;;;13.82;77.81;100917.03;5029746;28;20516;-60
2022/10/20 09:34:34;;;;;;;27.30;11.02;;;;;;;14.06;77.53;100917.09;5019549;28;20049;-60
2022/10/20 09:37:10;;;;;;;25.98;11.30;;;;;;;14.04;77.48;100900.44;5030332;28;20049;-60
2022/10/20 09:39:56;;;;;;;22.63;10.77;;;;;;;14.00;76.54;100913.31;5030170;28;20041;-61
2022/10/20 09:42:30;;;;;;;22.67;10.80;;;;;;;13.92;77.77;100910.69;5051737;28;20401;-60
2022/10/20 09:45:00;;;;;;;29.88;12.77;;;;;;;13.85;78.01;100910.53;5047064;28;20037;-60
2022/10/20 09:47:28;;;;;;;24.92;11.25;;;;;;;13.83;78.34;100901.88;5067353;28;20053;-60
2022/10/20 09:50:00;;;;;;;23.75;11.70;;;;;;;13.74;78.79;100901.06;5037069;28;20115;-60
2022/10/20 09:52:33;;;;;;;25.45;12.30;;;;;;;13.72;78.61;100905.72;4994339;28;20632;-60
2022/10/20 09:55:06;;;;;;;22.95;10.68;;;;;;;13.75;79.20;100901.88;5029701;28;20394;-60
2022/10/20 09:57:33;;;;;;;22.23;10.57;;;;;;;13.76;79.89;100901.72;5035926;28;20430;-60
2022/10/20 10:00:00;;;;;;;24.38;10.65;;;;;;;13.82;80.04;100924.19;5031301;28;20056;-60
2022/10/20 10:02:38;;;;;;;27.90;11.52;;;;;;;13.91;81.58;100946.34;5035709;28;20042;-60
2022/10/20 10:05:18;;;;;;;23.67;11.25;;;;;;;13.80;81.21;100947.53;5028717;28;20125;-61
2022/10/20 10:07:56;;;;;;;22.45;12.50;;;;;;;13.77;82.77;100932.72;5035739;28;20076;-61
2022/10/20 10:10:26;;;;;;;23.25;12.10;;;;;;;13.73;82.92;100931.38;5033699;28;20133;-61
2022/10/20 10:12:55;;;;;;;25.05;12.52;;;;;;;13.63;83.74;100928.06;5036358;28;20048;-61
2022/10/20 10:15:26;;;;;;;23.08;12.07;;;;;;;13.67;83.12;100932.06;5032114;28;20391;-62
2022/10/20 10:17:54;;;;;;;32.20;12.18;;;;;;;13.59;83.70;100929.41;5036685;28;20103;-60
2022/10/20 10:20:28;;;;;;;25.95;12.77;;;;;;;13.55;84.46;100926.25;5043527;28;20045;-61
2022/10/20 10:23:18;;;;;;;24.35;11.70;;;;;;;13.84;84.65;100951.50;5051875;28;20081;-61
2022/10/20 10:25:46;;;;;;;27.08;11.82;;;;;;;13.97;82.90;100949.16;5055491;28;20033;-60
2022/10/20 10:28:30;;;;;;;26.20;12.75;;;;;;;14.17;84.05;100952.25;5051732;28;20552;-61
2022/10/20 10:31:24;;;;;;;24.05;12.27;;;;;;;14.45;79.95;100943.78;5055521;28;20063;-61
2022/10/20 10:33:59;;;;;;;28.35;11.70;;;;;;;14.50;78.88;100938.78;5054250;28;20053;-61
2022/10/20 10:36:33;;;;;;;24.20;12.75;;;;;;;14.83;78.96;100943.94;5051671;28;20045;-61
2022/10/20 10:39:03;;;;;;;24.85;12.13;;;;;;;14.83;79.49;100935.94;5040562;28;20048;-61
2022/10/20 10:41:51;;;;;;;23.35;11.63;;;;;;;14.36;77.83;100940.34;5035576;28;20041;-61
2022/10/20 10:44:46;;;;;;;36.08;14.32;;;;;;;14.19;80.02;100923.56;5030314;28;20041;-60
2022/10/20 10:47:43;;;;;;;26.48;12.35;;;;;;;14.22;81.96;100917.03;5034467;28;20042;-59
2022/10/20 10:50:50;;;;;;;22.95;12.32;;;;;;;14.05;81.91;100920.81;5043172;28;20467;-59
2022/10/20 10:53:49;;;;;;;23.08;12.63;;;;;;;13.93;83.05;100920.31;5020794;28;20037;-59
2022/10/20 10:56:45;;;;;;;25.58;12.25;;;;;;;13.98;84.16;100908.13;5055015;28;20048;-59
2022/10/20 10:59:22;;;;;;;21.42;11.48;;;;;;;13.92;83.76;100905.34;5049821;28;20048;-59
2022/10/20 11:02:28;;;;;;;31.55;12.73;;;;;;;13.73;84.62;100891.38;5055188;28;20483;-59
2022/10/20 11:05:35;;;;;;;32.65;12.82;;;;;;;13.77;85.89;100879.38;5048980;28;20332;-59
2022/10/20 11:08:20;;;;;;;28.02;13.55;;;;;;;13.85;87.51;100888.38;5050127;28;20038;-59
2022/10/20 11:11:01;;;;;;;28.52;12.95;;;;;;;13.74;88.73;100887.72;5031004;28;20144;-59
2022/10/20 11:16:42;;;;;;;27.98;12.73;;;;;;;13.57;89.44;100894.09;5100519;27;20396;-59
2022/10/20 11:19:32;;;;;;;29.55;13.98;;;;;;;13.40;90.62;100890.63;5059371;28;20180;-59
2022/10/20 11:22:28;;;;;;;33.30;14.02;;;;;;;13.34;91.15;100900.13;5060712;28;20100;-59
2022/10/20 11:27:35;;;;;;;32.00;14.57;;;;;;;13.17;94.37;100909.94;5113831;27;20146;-59
2022/10/20 11:30:15;;;;;;;39.95;15.43;;;;;;;13.04;94.67;100913.09;5087426;28;20048;-59
2022/10/20 11:36:03;;;;;;;27.35;15.48;;;;;;;12.95;95.51;100915.91;5132011;27;20152;-61
2022/10/20 11:38:41;;;;;;;27.33;16.42;;;;;;;12.90;98.18;100908.44;5118952;27;20097;-59
2022/10/20 11:41:17;;;;;;;39.78;18.17;;;;;;;12.87;99.41;100920.22;5109823;28;20485;-59
2022/10/20 11:43:56;;;;;;;38.42;16.83;;;;;;;12.88;98.04;100910.44;5105483;27;20047;-60
2022/10/20 11:46:35;;;;;;;32.78;16.70;;;;;;;12.79;98.78;100911.41;5109998;28;20051;-59
2022/10/20 11:49:03;;;;;;;37.60;17.52;;;;;;;12.77;99.61;100919.56;5092532;28;20052;-59
2022/10/20 11:54:24;;;;;;;35.78;17.35;;;;;;;12.74;99.27;100914.56;5137544;27;20378;-59